Time;durP1;ratioP1;P1;durP2;ratioP2;P2;SDS_P1;SDS_P2;PMS_P1;PMS_P2;Temp;Humidity;BMP_temperature;BMP_pressure;BME280_temperature;BME280_humidity;BME280_pressure;Samples;Min_cycle;Max_cycle;Signal;HPM_P1;HPM_P2
2022/12/10 00:00:54;;;;;;;25.98;13.10;;;;;;;5.00;53.47;100560.59;4902892;28;96971;-64
2022/12/10 00:03:20;;;;;;;25.55;12.68;;;;;;;4.97;53.62;100556.28;4900749;28;99118;-72
2022/12/10 00:05:48;;;;;;;27.30;13.90;;;;;;;5.05;52.93;100564.03;4903043;28;98881;-71
2022/12/10 00:08:14;;;;;;;27.92;13.45;;;;;;;4.95;53.29;100558.06;4900346;28;96890;-71
2022/12/10 00:10:44;;;;;;;25.17;13.00;;;;;;;5.00;53.44;100551.00;4904532;28;96826;-73
2022/12/10 00:13:10;;;;;;;27.70;13.98;;;;;;;4.85;53.45;100566.09;4901086;28;99242;-72
2022/12/10 00:15:37;;;;;;;25.90;12.88;;;;;;;4.97;53.76;100572.00;4906153;28;97735;-71
2022/12/10 00:18:03;;;;;;;28.27;13.77;;;;;;;4.90;53.72;100565.13;4906501;28;97017;-71
2022/12/10 00:20:30;;;;;;;25.90;12.48;;;;;;;4.86;53.54;100568.66;4909484;28;96996;-71
2022/12/10 00:22:57;;;;;;;24.35;12.45;;;;;;;4.88;53.25;100561.66;4904219;28;98901;-71
2022/12/10 00:25:24;;;;;;;27.38;13.63;;;;;;;4.82;54.09;100562.63;4907111;28;97859;-72
2022/12/10 00:27:50;;;;;;;25.40;13.73;;;;;;;4.71;54.11;100559.31;4903604;28;97356;-72
2022/12/10 00:30:17;;;;;;;29.52;13.23;;;;;;;4.86;53.93;100557.34;4906128;28;96760;-73
2022/12/10 00:32:43;;;;;;;27.98;13.80;;;;;;;4.58;54.00;100562.13;4903295;28;98968;-73
2022/12/10 00:35:10;;;;;;;26.85;13.60;;;;;;;4.50;54.33;100569.19;4907918;28;98755;-72
2022/12/10 00:37:36;;;;;;;29.92;15.07;;;;;;;4.45;54.68;100576.25;4903532;28;100040;-73
2022/12/10 00:40:05;;;;;;;29.25;13.38;;;;;;;4.51;54.48;100571.81;4908766;28;96875;-72
2022/12/10 00:42:31;;;;;;;31.23;14.02;;;;;;;4.72;54.22;100570.66;4904422;28;97863;-74
2022/12/10 00:44:58;;;;;;;28.48;13.20;;;;;;;4.77;53.58;100571.44;4909903;28;99075;-72
2022/12/10 00:47:24;;;;;;;30.02;13.55;;;;;;;4.59;54.33;100567.34;4899387;28;96774;-72
2022/12/10 00:49:50;;;;;;;27.30;13.55;;;;;;;4.67;53.98;100575.06;4910095;28;96945;-72
2022/12/10 00:52:17;;;;;;;26.20;13.48;;;;;;;4.56;54.31;100580.44;4907349;28;97834;-72
2022/12/10 00:54:43;;;;;;;29.88;13.60;;;;;;;4.56;54.40;100574.34;4904405;28;98098;-73
2022/12/10 00:57:11;;;;;;;31.50;14.25;;;;;;;4.52;54.41;100577.91;4907742;28;96875;-73
2022/12/10 00:59:37;;;;;;;32.05;14.02;;;;;;;4.61;54.59;100568.16;4906443;28;97374;-74
2022/12/10 01:02:04;;;;;;;32.10;13.90;;;;;;;4.52;54.97;100572.66;4901959;28;99190;-73
2022/12/10 01:04:30;;;;;;;28.85;14.10;;;;;;;4.72;54.37;100571.50;4904786;28;98764;-72
2022/12/10 01:06:57;;;;;;;26.10;13.00;;;;;;;4.67;54.11;100583.78;4904937;28;96986;-73
2022/12/10 01:09:25;;;;;;;25.88;12.43;;;;;;;4.68;53.96;100577.66;4909846;28;97952;-74
2022/12/10 01:11:53;;;;;;;27.98;13.32;;;;;;;4.72;54.10;100570.66;4902815;28;99329;-72
2022/12/10 01:14:23;;;;;;;26.65;13.13;;;;;;;4.82;54.07;100580.06;4908276;28;98944;-72
2022/12/10 01:16:50;;;;;;;29.75;13.60;;;;;;;4.62;53.83;100577.75;4911217;28;96811;-72
2022/12/10 01:19:17;;;;;;;28.25;13.23;;;;;;;4.58;54.26;100583.06;4902822;28;99610;-71
2022/12/10 01:21:43;;;;;;;25.77;13.20;;;;;;;4.66;54.17;100579.41;4910590;28;99051;-72
2022/12/10 01:24:09;;;;;;;26.48;13.75;;;;;;;4.71;54.13;100579.38;4909930;28;98813;-73
2022/12/10 01:26:36;;;;;;;27.85;13.25;;;;;;;4.57;54.15;100581.31;4905854;28;97191;-73
2022/12/10 01:29:04;;;;;;;25.50;11.88;;;;;;;4.69;53.71;100576.78;4903504;28;96794;-72
2022/12/10 01:31:34;;;;;;;25.50;12.50;;;;;;;4.46;53.98;100578.84;4902609;28;98938;-72
2022/12/10 01:34:01;;;;;;;27.10;12.32;;;;;;;4.40;54.78;100571.94;4909885;28;99114;-73
2022/12/10 01:36:30;;;;;;;27.60;12.10;;;;;;;4.37;54.43;100578.97;4908793;28;97280;-73
2022/12/10 01:38:57;;;;;;;25.50;12.32;;;;;;;4.32;54.74;100579.03;4904124;28;98502;-73
2022/12/10 01:41:26;;;;;;;26.02;12.95;;;;;;;4.46;54.39;100576.25;4903033;28;99516;-72
2022/12/10 01:43:56;;;;;;;28.20;14.13;;;;;;;4.35;54.89;100578.97;4904142;28;98969;-72
2022/12/10 01:46:24;;;;;;;25.77;12.43;;;;;;;4.32;54.58;100576.41;4908322;28;96852;-73
2022/12/10 01:48:52;;;;;;;30.20;13.80;;;;;;;4.23;54.75;100584.38;4906253;28;96814;-74
2022/12/10 01:51:19;;;;;;;26.63;13.18;;;;;;;4.53;54.50;100590.09;4907706;28;99066;-71
2022/12/10 01:53:46;;;;;;;23.67;12.75;;;;;;;4.49;54.39;100580.53;4905999;28;99013;-72
2022/12/10 01:56:14;;;;;;;26.55;13.48;;;;;;;4.40;54.60;100582.38;4906187;28;96812;-72
2022/12/10 01:58:41;;;;;;;26.10;12.90;;;;;;;4.19;54.85;100579.19;4909621;28;96809;-71
2022/12/10 02:01:11;;;;;;;23.65;12.55;;;;;;;4.22;54.58;100574.78;4909578;28;98955;-73
2022/12/10 02:03:48;;;;;;;27.65;13.07;;;;;;;4.18;55.50;100582.69;4905680;28;99178;-71
2022/12/10 02:06:26;;;;;;;25.10;12.57;;;;;;;4.14;55.56;100575.75;4909456;28;98152;-72
2022/12/10 02:09:02;;;;;;;27.40;12.52;;;;;;;4.13;55.49;100580.16;4906467;28;96714;-72
2022/12/10 02:11:32;;;;;;;23.20;12.13;;;;;;;4.17;54.89;100576.59;4908026;28;98571;-72
2022/12/10 02:14:03;;;;;;;23.90;12.43;;;;;;;4.13;55.55;100567.06;4904128;28;99093;-72
2022/12/10 02:16:35;;;;;;;24.95;12.40;;;;;;;3.96;55.75;100575.09;4910820;28;97238;-73
2022/12/10 02:19:09;;;;;;;26.10;12.48;;;;;;;4.17;55.35;100571.38;4909697;28;99175;-72
2022/12/10 02:21:41;;;;;;;23.85;12.05;;;;;;;4.20;54.85;100570.47;4904953;28;100572;-72
2022/12/10 02:24:11;;;;;;;22.58;11.77;;;;;;;4.08;55.43;100571.47;4906384;28;98903;-73
2022/12/10 02:26:44;;;;;;;24.88;12.13;;;;;;;4.06;55.24;100568.03;4902424;28;96887;-73
2022/12/10 02:29:15;;;;;;;25.67;12.95;;;;;;;3.91;55.54;100569.06;4912834;28;96815;-72
2022/12/10 02:31:46;;;;;;;27.08;13.15;;;;;;;4.02;55.71;100566.31;4911188;28;98703;-70
2022/12/10 02:34:15;;;;;;;25.27;12.85;;;;;;;3.98;55.52;100572.47;4909891;28;98899;-69
2022/12/10 02:36:45;;;;;;;25.83;12.63;;;;;;;3.88;55.89;100573.44;4914329;28;96703;-71
2022/12/10 02:39:16;;;;;;;24.67;12.75;;;;;;;4.14;55.67;100567.91;4910114;28;97059;-72
2022/12/10 02:41:47;;;;;;;24.60;12.65;;;;;;;4.04;55.87;100566.31;4906658;28;100503;-71
2022/12/10 02:44:18;;;;;;;29.17;13.70;;;;;;;3.91;56.06;100568.19;4906970;28;98904;-71
2022/12/10 02:46:47;;;;;;;25.73;12.88;;;;;;;4.01;55.59;100562.81;4902989;28;97092;-72
2022/12/10 02:49:16;;;;;;;24.45;12.48;;;;;;;3.94;55.54;100573.38;4905374;28;96925;-71
2022/12/10 02:51:42;;;;;;;26.77;13.55;;;;;;;3.98;56.09;100564.63;4905649;28;99194;-73
2022/12/10 02:54:41;;;;;;;28.45;13.50;;;;;;;4.01;56.00;100569.81;4912240;28;99065;-72
2022/12/10 02:57:18;;;;;;;25.60;13.13;;;;;;;4.05;56.01;100570.66;4904960;28;96883;-72
2022/12/10 03:00:01;;;;;;;29.13;13.48;;;;;;;3.97;55.76;100563.75;4906465;28;97083;-71
2022/12/10 03:02:32;;;;;;;27.00;12.95;;;;;;;3.92;56.06;100570.78;4906856;28;99542;-72
2022/12/10 03:05:03;;;;;;;28.95;13.38;;;;;;;4.04;55.78;100574.16;4907748;28;99309;-72
2022/12/10 03:07:36;;;;;;;31.70;14.20;;;;;;;4.19;55.64;100580.06;4906137;28;98775;-72
2022/12/10 03:10:07;;;;;;;29.08;13.40;;;;;;;4.17;55.42;100580.97;4904579;28;96888;-74
2022/12/10 03:12:37;;;;;;;26.90;13.20;;;;;;;4.20;55.60;100576.53;4904078;28;100866;-72
2022/12/10 03:15:09;;;;;;;27.83;14.00;;;;;;;4.30;55.07;100585.16;4901272;28;99593;-72
2022/12/10 03:17:38;;;;;;;25.85;13.23;;;;;;;4.32;55.20;100581.66;4907638;28;96832;-72
2022/12/10 03:20:08;;;;;;;26.15;13.85;;;;;;;4.25;55.01;100586.97;4905291;28;96825;-71
2022/12/10 03:22:38;;;;;;;26.17;13.93;;;;;;;4.27;55.62;100580.81;4903184;28;99474;-71
2022/12/10 03:25:05;;;;;;;28.67;14.30;;;;;;;4.32;54.73;100578.16;4900747;28;99374;-72
2022/12/10 03:27:33;;;;;;;26.17;13.23;;;;;;;4.27;55.43;100575.59;4901294;28;96831;-72
2022/12/10 03:30:01;;;;;;;30.27;15.30;;;;;;;4.35;55.06;100576.34;4904370;28;97478;-72
2022/12/10 03:32:30;;;;;;;30.48;14.80;;;;;;;4.34;54.98;100582.47;4907912;28;96967;-72
2022/12/10 03:34:59;;;;;;;26.73;13.88;;;;;;;4.37;55.03;100573.72;4908782;28;98801;-73
2022/12/10 03:37:29;;;;;;;29.88;14.07;;;;;;;4.41;54.99;100575.41;4905020;28;97199;-73
2022/12/10 03:39:56;;;;;;;35.92;15.27;;;;;;;4.14;55.23;100578.38;4904147;28;97100;-72
2022/12/10 03:42:23;;;;;;;33.15;15.63;;;;;;;4.16;55.27;100574.88;4906532;28;98882;-71
2022/12/10 03:44:51;;;;;;;31.58;15.32;;;;;;;4.33;54.87;100575.50;4908455;28;100248;-73
2022/12/10 03:47:18;;;;;;;25.88;14.23;;;;;;;4.49;55.07;100572.69;4900920;28;97139;-72
2022/12/10 03:49:46;;;;;;;29.00;14.45;;;;;;;4.48;54.70;100570.97;4908629;28;96812;-74
2022/12/10 03:52:12;;;;;;;33.58;15.60;;;;;;;4.46;54.87;100568.38;4903393;28;98950;-73
2022/12/10 03:54:39;;;;;;;33.17;15.38;;;;;;;4.29;54.55;100572.97;4903680;28;99350;-73
2022/12/10 03:57:05;;;;;;;29.40;13.85;;;;;;;4.49;54.79;100580.53;4907423;28;96899;-71
2022/12/10 03:59:32;;;;;;;27.42;13.88;;;;;;;4.34;55.20;100577.25;4904250;28;97319;-72
2022/12/10 04:01:59;;;;;;;29.83;14.45;;;;;;;4.38;54.92;100581.56;4907860;28;99326;-72
2022/12/10 04:04:25;;;;;;;29.13;14.32;;;;;;;4.42;54.71;100585.00;4902632;28;98993;-72
2022/12/10 04:06:53;;;;;;;30.65;15.15;;;;;;;4.55;54.83;100577.84;4901899;28;96927;-71
2022/12/10 04:09:19;;;;;;;27.95;14.27;;;;;;;4.57;54.47;100578.69;4903447;28;98614;-72
2022/12/10 04:11:46;;;;;;;30.95;15.30;;;;;;;4.54;54.73;100584.81;4905505;28;99286;-73
2022/12/10 04:16:57;;;;;;;29.27;14.80;;;;;;;4.53;53.91;100588.31;4905474;28;96870;-72
2022/12/10 04:19:24;;;;;;;29.25;15.13;;;;;;;4.53;54.57;100583.09;4908284;28;96917;-71
2022/12/10 04:27:24;;;;;;;32.67;16.30;;;;;;;4.12;55.60;100583.63;4907085;28;96881;-72
2022/12/10 04:29:51;;;;;;;29.33;14.50;;;;;;;4.17;55.38;100587.06;4906221;28;96876;-72
2022/12/10 04:32:18;;;;;;;28.55;14.38;;;;;;;4.37;55.05;100582.44;4901019;28;98951;-71
2022/12/10 04:34:44;;;;;;;27.95;14.15;;;;;;;4.65;54.40;100582.09;4906553;28;97648;-74
2022/12/10 04:37:12;;;;;;;26.63;14.85;;;;;;;4.69;53.79;100583.75;4906276;28;96789;-72
2022/12/10 04:39:40;;;;;;;28.17;14.77;;;;;;;4.82;53.58;100572.22;4906531;28;97066;-72
2022/12/10 04:42:07;;;;;;;25.52;13.65;;;;;;;4.75;53.73;100584.53;4904536;28;99180;-72
2022/12/10 04:44:34;;;;;;;29.25;14.38;;;;;;;4.75;53.97;100586.28;4906928;28;98814;-71
2022/12/10 04:47:01;;;;;;;25.38;13.57;;;;;;;4.70;54.00;100588.13;4910208;28;97145;-71
2022/12/10 04:49:28;;;;;;;27.23;13.43;;;;;;;4.78;53.76;100583.63;4905087;28;97590;-73
2022/12/10 04:51:55;;;;;;;26.02;14.10;;;;;;;4.64;53.61;100588.19;4908789;28;98844;-72
2022/12/10 04:54:21;;;;;;;28.65;14.23;;;;;;;4.77;53.29;100588.00;4903723;28;98889;-73
2022/12/10 04:56:49;;;;;;;26.13;13.90;;;;;;;4.69;53.75;100596.84;4904454;28;96774;-72
2022/12/10 04:59:16;;;;;;;27.70;14.50;;;;;;;4.75;53.72;100588.91;4913584;28;96778;-72
2022/12/10 05:01:42;;;;;;;25.70;13.25;;;;;;;5.04;53.09;100586.72;4907832;28;99112;-73
2022/12/10 05:04:12;;;;;;;29.58;15.25;;;;;;;5.04;52.33;100585.88;4909268;28;99137;-72
2022/12/10 05:06:38;;;;;;;25.10;12.68;;;;;;;4.97;52.83;100592.09;4906936;28;97699;-72
2022/12/10 05:09:05;;;;;;;25.75;13.32;;;;;;;4.85;53.46;100587.03;4908557;28;96829;-73
2022/12/10 05:11:33;;;;;;;29.38;13.60;;;;;;;5.09;52.41;100590.13;4909500;28;99449;-74
2022/12/10 05:14:01;;;;;;;28.48;13.77;;;;;;;5.11;52.06;100596.22;4900499;28;98868;-72
2022/12/10 05:16:31;;;;;;;25.23;13.27;;;;;;;5.14;52.07;100600.53;4909817;28;96789;-73
2022/12/10 05:18:58;;;;;;;24.67;13.93;;;;;;;4.92;52.15;100596.53;4903419;28;97077;-73
2022/12/10 05:23:27;;;;;;;24.52;13.18;;;;;;;5.10;51.95;100596.25;4910060;28;99287;-72
2022/12/10 05:24:13;;;;;;;25.42;13.68;;;;;;;5.10;52.13;100599.72;4907656;28;98485;-72
2022/12/10 05:26:40;;;;;;;27.55;13.88;;;;;;;4.99;52.06;100595.56;4907702;28;96948;-73
2022/12/10 05:29:08;;;;;;;26.92;13.73;;;;;;;4.94;52.33;100599.97;4902781;28;97059;-71
2022/12/10 05:31:34;;;;;;;25.30;13.02;;;;;;;4.71;53.04;100595.94;4907552;28;99312;-72
2022/12/10 05:34:01;;;;;;;29.15;13.75;;;;;;;5.07;52.27;100602.38;4903824;28;97500;-71
2022/12/10 05:36:30;;;;;;;25.70;13.52;;;;;;;4.86;52.33;100597.47;4908559;28;96766;-72
2022/12/10 05:38:58;;;;;;;20.77;11.82;;;;;;;5.36;51.29;100601.06;4910629;28;97692;-73
2022/12/10 05:41:26;;;;;;;21.85;12.60;;;;;;;5.32;51.34;100599.38;4903834;28;98996;-71
2022/12/10 05:43:54;;;;;;;20.00;11.35;;;;;;;5.36;50.62;100604.56;4902847;28;99103;-71
2022/12/10 05:46:24;;;;;;;20.23;11.35;;;;;;;5.13;50.29;100604.91;4907915;28;97220;-71
2022/12/10 05:48:51;;;;;;;20.60;11.60;;;;;;;5.27;50.31;100606.44;4909806;28;98319;-72
2022/12/10 05:51:19;;;;;;;24.63;12.45;;;;;;;5.40;49.99;100605.34;4908084;28;101268;-73
2022/12/10 05:53:46;;;;;;;19.35;11.52;;;;;;;5.05;50.34;100603.31;4906331;28;98854;-73
2022/12/10 05:56:15;;;;;;;20.80;11.80;;;;;;;5.07;50.25;100604.13;4907252;28;96894;-73
2022/12/10 05:58:43;;;;;;;21.35;11.40;;;;;;;5.28;50.62;100606.44;4908431;28;96847;-71
2022/12/10 06:01:11;;;;;;;18.67;11.27;;;;;;;5.38;50.45;100607.16;4906079;28;98871;-71
2022/12/10 06:03:40;;;;;;;22.00;12.20;;;;;;;5.46;49.78;100603.50;4907184;28;100486;-72
2022/12/10 06:06:06;;;;;;;20.30;11.27;;;;;;;5.44;49.77;100607.91;4905336;28;96942;-73
2022/12/10 06:08:33;;;;;;;19.65;11.27;;;;;;;5.38;49.71;100609.78;4900402;28;98364;-72
2022/12/10 06:11:01;;;;;;;20.45;10.80;;;;;;;5.45;49.60;100612.25;4906453;28;99168;-72
2022/12/10 06:13:27;;;;;;;23.02;11.68;;;;;;;5.42;49.67;100614.94;4900739;28;98806;-71
2022/12/10 06:15:54;;;;;;;19.02;11.13;;;;;;;5.27;49.36;100606.44;4907020;28;98433;-71
2022/12/10 06:18:21;;;;;;;19.20;11.30;;;;;;;5.35;49.98;100604.56;4902514;28;98427;-71
2022/12/10 06:20:49;;;;;;;20.08;10.43;;;;;;;5.32;49.52;100604.59;4907466;28;101278;-72
2022/12/10 06:23:15;;;;;;;22.38;11.85;;;;;;;5.41;49.92;100609.72;4909292;28;99152;-72
2022/12/10 06:25:42;;;;;;;20.48;11.13;;;;;;;5.33;49.70;100608.97;4905213;28;97159;-72
2022/12/10 06:28:09;;;;;;;19.52;10.80;;;;;;;5.16;50.10;100610.13;4904790;28;96738;-73
2022/12/10 06:30:35;;;;;;;19.90;10.88;;;;;;;5.27;49.25;100617.78;4905963;28;99094;-72
2022/12/10 06:33:02;;;;;;;19.38;10.73;;;;;;;5.28;49.44;100621.28;4901486;28;98863;-72
2022/12/10 06:35:29;;;;;;;21.10;11.10;;;;;;;5.28;49.83;100619.53;4904859;28;96921;-72
2022/12/10 06:37:56;;;;;;;20.38;10.88;;;;;;;5.43;49.37;100621.91;4903843;28;96964;-71
2022/12/10 06:40:23;;;;;;;20.38;11.43;;;;;;;5.28;49.25;100629.13;4904219;28;101015;-71
2022/12/10 06:42:51;;;;;;;19.33;10.95;;;;;;;5.22;49.46;100625.72;4907239;28;97876;-72
2022/12/10 06:45:18;;;;;;;19.35;11.02;;;;;;;5.22;50.14;100630.97;4907983;28;96876;-72
2022/12/10 06:47:44;;;;;;;19.92;11.13;;;;;;;5.14;49.97;100627.59;4908468;28;97530;-71
2022/12/10 06:50:11;;;;;;;17.80;10.70;;;;;;;5.28;49.45;100624.75;4902473;28;98870;-70
2022/12/10 06:52:37;;;;;;;18.52;10.00;;;;;;;5.28;49.08;100629.13;4906405;28;98986;-72
2022/12/10 06:55:05;;;;;;;18.75;10.50;;;;;;;5.20;49.11;100637.13;4909430;28;97418;-72
2022/12/10 06:57:32;;;;;;;19.13;10.98;;;;;;;5.16;49.60;100638.06;4905730;28;96970;-71
2022/12/10 06:59:58;;;;;;;18.23;10.48;;;;;;;5.06;49.58;100639.94;4907708;28;98014;-72
2022/12/10 07:02:25;;;;;;;17.48;10.75;;;;;;;5.13;48.80;100636.34;4902713;28;98777;-72
2022/12/10 07:04:51;;;;;;;20.00;10.63;;;;;;;5.09;48.92;100639.03;4908578;28;97979;-72
2022/12/10 07:07:18;;;;;;;26.70;11.20;;;;;;;5.04;49.12;100638.25;4906507;28;96776;-72
2022/12/10 07:09:44;;;;;;;19.02;11.10;;;;;;;5.09;49.50;100647.75;4905734;28;99063;-72
2022/12/10 07:12:12;;;;;;;18.70;10.20;;;;;;;5.21;49.19;100654.56;4903696;28;99003;-72
2022/12/10 07:14:38;;;;;;;17.02;9.93;;;;;;;5.01;49.34;100647.00;4906385;28;97785;-72
2022/12/10 07:17:05;;;;;;;18.48;10.07;;;;;;;5.11;49.77;100648.63;4909717;28;96889;-71
2022/12/10 07:19:31;;;;;;;14.65;9.13;;;;;;;5.07;49.38;100646.03;4906047;28;99128;-72
2022/12/10 07:21:58;;;;;;;16.48;9.93;;;;;;;5.18;49.17;100642.41;4908600;28;100456;-72
2022/12/10 07:24:25;;;;;;;16.17;9.95;;;;;;;4.99;49.05;100647.94;4904515;28;98514;-73
2022/12/10 07:26:52;;;;;;;20.55;12.25;;;;;;;4.97;49.09;100649.69;4903790;28;97481;-70
2022/12/10 07:29:21;;;;;;;18.92;9.88;;;;;;;4.97;49.49;100650.56;4903303;28;97790;-72
2022/12/10 07:31:49;;;;;;;16.63;10.32;;;;;;;5.02;48.84;100653.97;4907940;28;100300;-72
2022/12/10 07:34:16;;;;;;;16.90;9.27;;;;;;;4.89;49.59;100654.16;4905276;28;96859;-72
2022/12/10 07:36:43;;;;;;;17.65;9.85;;;;;;;4.80;49.69;100656.00;4901977;28;99108;-73
2022/12/10 07:39:16;;;;;;;16.77;9.63;;;;;;;5.00;49.04;100660.97;4906000;28;98947;-72
2022/12/10 07:41:43;;;;;;;17.35;9.30;;;;;;;5.09;48.99;100660.00;4905288;28;97928;-73
2022/12/10 07:44:12;;;;;;;18.75;10.40;;;;;;;4.98;49.44;100662.78;4905514;28;96764;-72
2022/12/10 07:46:40;;;;;;;19.58;10.40;;;;;;;5.04;49.24;100667.91;4910040;28;96869;-72
2022/12/10 07:49:06;;;;;;;17.65;10.55;;;;;;;5.03;49.18;100666.19;4902727;28;99097;-73
2022/12/10 07:51:33;;;;;;;15.00;9.48;;;;;;;4.90;49.24;100667.25;4905446;28;99280;-71
2022/12/10 07:53:59;;;;;;;19.65;9.73;;;;;;;4.83;49.45;100673.44;4904543;28;96765;-72
2022/12/10 07:56:25;;;;;;;16.05;10.18;;;;;;;4.98;49.34;100682.84;4904032;28;97508;-73
2022/12/10 07:58:54;;;;;;;17.10;9.50;;;;;;;5.07;48.98;100673.09;4903385;28;97762;-73
2022/12/10 08:01:23;;;;;;;20.15;10.55;;;;;;;5.06;48.75;100680.97;4905924;28;100580;-74
2022/12/10 08:03:51;;;;;;;19.27;10.38;;;;;;;5.20;48.89;100679.88;4903236;28;96875;-74
2022/12/10 08:06:20;;;;;;;17.15;10.27;;;;;;;5.03;49.06;100681.91;4907680;28;96705;-74
2022/12/10 08:08:47;;;;;;;13.77;9.07;;;;;;;5.11;49.12;100680.03;4906051;28;97797;-75
2022/12/10 08:11:15;;;;;;;16.42;9.57;;;;;;;5.26;48.70;100683.31;4904905;28;98923;-74
2022/12/10 08:13:42;;;;;;;15.90;9.98;;;;;;;5.30;48.91;100693.75;4909769;28;97181;-75
2022/12/10 08:16:12;;;;;;;17.38;10.40;;;;;;;5.16;48.77;100693.06;4909543;28;97087;-72
2022/12/10 08:18:39;;;;;;;17.52;10.48;;;;;;;5.30;49.20;100695.50;4898780;28;98979;-73
2022/12/10 08:21:08;;;;;;;19.17;10.75;;;;;;;5.34;48.73;100690.16;4902872;28;100841;-73
2022/12/10 08:23:35;;;;;;;18.55;10.35;;;;;;;5.33;48.32;100690.19;4910122;28;97217;-73
2022/12/10 08:26:05;;;;;;;15.90;10.02;;;;;;;5.39;48.45;100695.34;4908191;28;97011;-73
2022/12/10 08:28:31;;;;;;;19.73;10.73;;;;;;;5.29;48.75;100693.75;4907913;28;101061;-72
2022/12/10 08:30:58;;;;;;;19.77;10.52;;;;;;;5.36;48.33;100695.41;4910731;28;98897;-74
2022/12/10 08:33:25;;;;;;;16.25;10.05;;;;;;;5.38;48.65;100693.63;4910984;28;96718;-72
2022/12/10 08:35:51;;;;;;;18.48;10.07;;;;;;;5.40;48.75;100697.94;4910369;28;96889;-73
2022/12/10 08:38:19;;;;;;;17.85;10.73;;;;;;;5.24;48.64;100704.31;4911005;28;98928;-73
2022/12/10 08:40:45;;;;;;;20.63;11.02;;;;;;;5.43;48.81;100699.66;4909676;28;99144;-73
2022/12/10 08:43:12;;;;;;;17.88;10.50;;;;;;;5.51;48.74;100696.00;4908681;28;97187;-74
2022/12/10 08:45:38;;;;;;;17.23;10.95;;;;;;;5.52;48.36;100697.75;4908674;28;96913;-74
2022/12/10 08:48:05;;;;;;;20.23;11.10;;;;;;;5.54;48.44;100702.97;4908378;28;99222;-73
2022/12/10 08:50:31;;;;;;;17.60;11.00;;;;;;;5.75;47.89;100705.25;4906122;28;99026;-73
2022/12/10 08:52:58;;;;;;;17.10;10.50;;;;;;;5.78;47.94;100705.19;4907113;28;96795;-74
2022/12/10 08:55:26;;;;;;;18.88;10.95;;;;;;;5.83;47.65;100707.75;4908580;28;97129;-73
2022/12/10 08:57:52;;;;;;;18.67;10.90;;;;;;;5.90;47.35;100712.91;4913617;28;98321;-72
2022/12/10 09:00:19;;;;;;;17.58;10.63;;;;;;;5.76;48.02;100716.59;4912309;28;99862;-73
2022/12/10 09:02:46;;;;;;;20.92;11.07;;;;;;;5.82;47.93;100713.88;4914017;28;96805;-74
2022/12/10 09:05:12;;;;;;;19.98;11.52;;;;;;;5.64;48.10;100722.91;4914293;28;96851;-74
2022/12/10 09:07:39;;;;;;;17.98;10.32;;;;;;;5.58;48.41;100717.75;4912016;28;99188;-74
2022/12/10 09:10:06;;;;;;;16.70;10.38;;;;;;;5.57;48.58;100721.28;4908626;28;99035;-73
2022/12/10 09:12:36;;;;;;;20.13;11.98;;;;;;;5.61;48.92;100718.59;4913402;28;96969;-73
2022/12/10 09:15:03;;;;;;;17.88;10.80;;;;;;;5.69;48.42;100721.09;4917171;28;96955;-75
2022/12/10 09:17:30;;;;;;;19.13;12.07;;;;;;;5.78;47.52;100727.91;4915267;28;98256;-75
2022/12/10 09:19:58;;;;;;;16.67;10.82;;;;;;;5.93;47.68;100720.72;4913431;28;97725;-75
2022/12/10 09:22:24;;;;;;;20.85;10.50;;;;;;;5.92;47.33;100721.59;4913298;28;96786;-74
2022/12/10 09:25:02;;;;;;;18.08;10.73;;;;;;;6.03;47.27;100724.06;4911174;28;96814;-74
2022/12/10 09:27:29;;;;;;;18.52;10.23;;;;;;;6.03;47.35;100723.19;4909444;28;101168;-74
2022/12/10 09:29:56;;;;;;;19.38;11.23;;;;;;;6.04;47.56;100727.53;4912932;28;99101;-75
2022/12/10 09:32:23;;;;;;;18.83;11.27;;;;;;;5.86;48.26;100724.28;4908478;28;96851;-75
2022/12/10 09:34:51;;;;;;;20.42;10.45;;;;;;;5.91;47.95;100721.63;4916647;28;96886;-73
2022/12/10 09:37:17;;;;;;;19.20;11.27;;;;;;;6.06;47.92;100720.50;4921252;28;98963;-74
2022/12/10 09:39:44;;;;;;;16.77;10.32;;;;;;;5.90;47.75;100723.41;4921749;28;97776;-75
2022/12/10 09:42:25;;;;;;;18.67;10.90;;;;;;;6.11;47.79;100721.28;4922337;28;96788;-73
2022/12/10 09:45:01;;;;;;;18.85;11.00;;;;;;;6.16;47.88;100725.56;4918693;28;96642;-73
2022/12/10 09:47:36;;;;;;;14.52;10.13;;;;;;;6.15;47.67;100722.97;4911633;28;101328;-73
2022/12/10 09:50:13;;;;;;;17.55;10.93;;;;;;;6.21;47.11;100720.22;4911776;28;98930;-76
2022/12/10 09:52:42;;;;;;;20.30;11.13;;;;;;;6.13;47.55;100714.25;4915825;28;96742;-74
2022/12/10 09:55:14;;;;;;;20.23;11.02;;;;;;;5.99;47.98;100715.34;4913665;28;96708;-74
2022/12/10 09:57:44;;;;;;;17.70;11.13;;;;;;;6.10;47.63;100716.94;4913172;28;99128;-73
2022/12/10 10:00:22;;;;;;;17.50;10.93;;;;;;;6.15;48.03;100715.97;4914151;28;99102;-74
2022/12/10 10:02:49;;;;;;;18.55;11.00;;;;;;;5.98;47.66;100715.38;4910229;28;97046;-72
2022/12/10 10:05:22;;;;;;;17.67;11.15;;;;;;;5.80;48.25;100718.28;4910534;28;97747;-74
2022/12/10 10:07:52;;;;;;;18.98;10.80;;;;;;;5.88;47.87;100716.44;4904881;28;97871;-74
2022/12/10 10:10:24;;;;;;;16.55;10.05;;;;;;;5.93;48.05;100718.09;4910309;28;99290;-73
2022/12/10 10:12:53;;;;;;;17.02;10.57;;;;;;;5.95;48.30;100718.06;4911945;28;97298;-74
2022/12/10 10:15:26;;;;;;;16.70;10.68;;;;;;;5.90;48.59;100718.16;4912351;28;96826;-75
2022/12/10 10:17:56;;;;;;;20.80;11.02;;;;;;;5.83;48.87;100716.50;4909379;28;97917;-74
2022/12/10 10:20:23;;;;;;;17.40;10.85;;;;;;;6.05;48.29;100718.75;4912099;28;98460;-74
2022/12/10 10:22:49;;;;;;;16.30;10.80;;;;;;;6.01;48.23;100731.06;4909711;28;96837;-72
2022/12/10 10:25:18;;;;;;;21.10;11.15;;;;;;;6.00;48.25;100730.19;4906625;28;96852;-74
2022/12/10 10:27:45;;;;;;;21.30;12.02;;;;;;;6.03;48.29;100717.94;4906568;28;99695;-74
2022/12/10 10:30:16;;;;;;;19.15;11.77;;;;;;;6.04;48.75;100722.28;4905361;28;97992;-75
2022/12/10 10:32:50;;;;;;;19.88;11.50;;;;;;;5.90;48.57;100723.41;4912521;28;96735;-73
2022/12/10 10:35:31;;;;;;;15.90;10.50;;;;;;;5.80;49.05;100713.91;4910581;28;97195;-74
2022/12/10 10:38:00;;;;;;;23.10;11.45;;;;;;;5.84;48.74;100714.72;4908682;28;99160;-75
2022/12/10 10:40:30;;;;;;;22.35;12.52;;;;;;;5.84;49.04;100710.31;4912394;28;99466;-73
2022/12/10 10:42:59;;;;;;;20.05;11.48;;;;;;;5.90;48.87;100706.78;4907628;28;96763;-74
2022/12/10 10:45:36;;;;;;;21.20;11.20;;;;;;;6.04;48.94;100696.06;4912136;28;97474;-72
2022/12/10 10:48:12;;;;;;;18.30;10.90;;;;;;;6.08;49.18;100692.47;4911355;28;98937;-74
2022/12/10 10:50:41;;;;;;;18.47;10.63;;;;;;;6.04;49.24;100694.28;4909750;28;99056;-75
2022/12/10 10:53:26;;;;;;;19.83;11.05;;;;;;;6.04;48.31;100693.44;4911046;28;96842;-72
2022/12/10 10:55:56;;;;;;;22.13;12.35;;;;;;;6.03;48.56;100692.56;4914336;28;96751;-73
2022/12/10 10:58:25;;;;;;;16.65;10.57;;;;;;;6.00;48.98;100688.22;4909503;28;97716;-73
2022/12/10 11:00:56;;;;;;;19.05;11.40;;;;;;;6.03;48.97;100695.19;4913016;28;98840;-74
2022/12/10 11:03:25;;;;;;;18.60;11.10;;;;;;;6.04;48.84;100690.81;4910034;28;96732;-73
2022/12/10 11:05:52;;;;;;;20.88;11.23;;;;;;;5.92;49.52;100695.38;4906873;28;97236;-73
2022/12/10 11:08:20;;;;;;;19.65;11.52;;;;;;;5.87;49.75;100691.97;4911624;28;98907;-73
2022/12/10 11:10:51;;;;;;;19.17;11.07;;;;;;;6.15;48.85;100689.72;4907535;28;99333;-74
2022/12/10 11:13:26;;;;;;;20.50;10.85;;;;;;;6.12;48.47;100689.78;4914471;28;96802;-74
2022/12/10 11:15:58;;;;;;;20.48;11.10;;;;;;;6.31;48.46;100680.66;4914818;28;96762;-73
2022/12/10 11:18:31;;;;;;;22.15;11.00;;;;;;;6.41;48.11;100686.63;4914035;28;98944;-74
2022/12/10 11:21:01;;;;;;;18.98;11.02;;;;;;;6.26;48.60;100689.50;4911084;28;99278;-74
2022/12/10 11:23:29;;;;;;;18.40;11.10;;;;;;;6.34;48.68;100682.38;4910870;28;96819;-73
2022/12/10 11:26:07;;;;;;;19.63;11.45;;;;;;;6.31;48.35;100683.28;4915688;28;97109;-73
2022/12/10 11:28:47;;;;;;;23.00;12.50;;;;;;;6.29;48.14;100681.59;4909111;28;99099;-74
2022/12/10 11:31:27;;;;;;;22.08;11.85;;;;;;;6.30;48.10;100680.72;4908162;28;100694;-75